sensor_id;sensor_type;location;lat;lon;timestamp;temperature;humidity
62809;DHT22;48848;39.002;-94.584;2022-12-18T00:02:14;19.00;34.70
62809;DHT22;48848;39.002;-94.584;2022-12-18T00:04:40;19.00;34.40
62809;DHT22;48848;39.002;-94.584;2022-12-18T00:07:06;18.90;34.60
62809;DHT22;48848;39.002;-94.584;2022-12-18T00:09:32;18.90;34.80
62809;DHT22;48848;39.002;-94.584;2022-12-18T00:11:58;18.90;34.90
62809;DHT22;48848;39.002;-94.584;2022-12-18T00:14:24;18.90;34.80
62809;DHT22;48848;39.002;-94.584;2022-12-18T00:16:49;19.00;34.70
62809;DHT22;48848;39.002;-94.584;2022-12-18T00:19:15;19.20;33.50
62809;DHT22;48848;39.002;-94.584;2022-12-18T00:21:42;19.50;32.60
62809;DHT22;48848;39.002;-94.584;2022-12-18T00:24:08;19.80;32.00
62809;DHT22;48848;39.002;-94.584;2022-12-18T00:26:35;20.00;31.30
62809;DHT22;48848;39.002;-94.584;2022-12-18T00:29:05;20.00;31.30
62809;DHT22;48848;39.002;-94.584;2022-12-18T00:31:31;19.80;31.60
62809;DHT22;48848;39.002;-94.584;2022-12-18T00:33:58;19.50;32.00
62809;DHT22;48848;39.002;-94.584;2022-12-18T00:36:26;19.30;32.40
62809;DHT22;48848;39.002;-94.584;2022-12-18T00:38:52;19.20;32.70
62809;DHT22;48848;39.002;-94.584;2022-12-18T00:41:18;19.10;33.10
62809;DHT22;48848;39.002;-94.584;2022-12-18T00:44:03;19.00;33.20
62809;DHT22;48848;39.002;-94.584;2022-12-18T00:46:29;18.90;33.10
62809;DHT22;48848;39.002;-94.584;2022-12-18T00:48:55;18.80;33.40
62809;DHT22;48848;39.002;-94.584;2022-12-18T00:51:21;18.70;33.20
62809;DHT22;48848;39.002;-94.584;2022-12-18T00:53:47;18.90;32.80
62809;DHT22;48848;39.002;-94.584;2022-12-18T00:56:13;19.20;32.40
62809;DHT22;48848;39.002;-94.584;2022-12-18T00:58:38;19.50;31.80
62809;DHT22;48848;39.002;-94.584;2022-12-18T01:01:05;19.80;31.40
62809;DHT22;48848;39.002;-94.584;2022-12-18T01:03:31;19.90;32.10
62809;DHT22;48848;39.002;-94.584;2022-12-18T01:05:56;19.70;32.30
62809;DHT22;48848;39.002;-94.584;2022-12-18T01:08:22;19.40;31.70
62809;DHT22;48848;39.002;-94.584;2022-12-18T01:10:48;19.20;32.20
62809;DHT22;48848;39.002;-94.584;2022-12-18T01:13:14;19.00;32.30
62809;DHT22;48848;39.002;-94.584;2022-12-18T01:15:40;18.80;32.80
62809;DHT22;48848;39.002;-94.584;2022-12-18T01:18:06;18.60;33.80
62809;DHT22;48848;39.002;-94.584;2022-12-18T01:20:32;18.70;34.40
62809;DHT22;48848;39.002;-94.584;2022-12-18T01:22:58;18.30;33.80
62809;DHT22;48848;39.002;-94.584;2022-12-18T01:25:24;18.40;33.30
62809;DHT22;48848;39.002;-94.584;2022-12-18T01:27:50;18.60;33.00
62809;DHT22;48848;39.002;-94.584;2022-12-18T01:30:16;18.60;32.70
62809;DHT22;48848;39.002;-94.584;2022-12-18T01:32:42;18.80;32.30
62809;DHT22;48848;39.002;-94.584;2022-12-18T01:35:08;18.70;32.40
62809;DHT22;48848;39.002;-94.584;2022-12-18T01:37:34;18.50;33.00
62809;DHT22;48848;39.002;-94.584;2022-12-18T01:40:00;18.20;33.40
62809;DHT22;48848;39.002;-94.584;2022-12-18T01:42:26;17.90;34.20
62809;DHT22;48848;39.002;-94.584;2022-12-18T01:45:05;17.70;34.70
62809;DHT22;48848;39.002;-94.584;2022-12-18T01:47:33;17.40;35.00
62809;DHT22;48848;39.002;-94.584;2022-12-18T01:50:01;17.30;35.30
62809;DHT22;48848;39.002;-94.584;2022-12-18T01:52:28;17.10;35.70
62809;DHT22;48848;39.002;-94.584;2022-12-18T01:54:55;17.10;35.90
62809;DHT22;48848;39.002;-94.584;2022-12-18T01:57:21;17.00;35.50
62809;DHT22;48848;39.002;-94.584;2022-12-18T01:59:49;17.30;34.90
62809;DHT22;48848;39.002;-94.584;2022-12-18T02:02:16;17.60;34.00
62809;DHT22;48848;39.002;-94.584;2022-12-18T02:04:42;17.90;33.40
62809;DHT22;48848;39.002;-94.584;2022-12-18T02:07:43;18.00;33.20
62809;DHT22;48848;39.002;-94.584;2022-12-18T02:13:19;17.60;34.60
62809;DHT22;48848;39.002;-94.584;2022-12-18T02:15:21;17.40;35.00
62809;DHT22;48848;39.002;-94.584;2022-12-18T02:17:56;17.20;35.70
62809;DHT22;48848;39.002;-94.584;2022-12-18T02:20:35;17.00;36.00
62809;DHT22;48848;39.002;-94.584;2022-12-18T02:26:33;16.70;36.20
62809;DHT22;48848;39.002;-94.584;2022-12-18T02:28:26;16.70;36.10
62809;DHT22;48848;39.002;-94.584;2022-12-18T02:30:53;16.90;35.30
62809;DHT22;48848;39.002;-94.584;2022-12-18T02:33:21;17.20;34.60
62809;DHT22;48848;39.002;-94.584;2022-12-18T02:35:48;17.50;34.30
62809;DHT22;48848;39.002;-94.584;2022-12-18T02:38:15;17.70;33.50
62809;DHT22;48848;39.002;-94.584;2022-12-18T02:40:41;17.60;34.10
62809;DHT22;48848;39.002;-94.584;2022-12-18T02:43:09;17.30;34.60
62809;DHT22;48848;39.002;-94.584;2022-12-18T02:45:35;17.20;35.10
62809;DHT22;48848;39.002;-94.584;2022-12-18T02:48:01;17.00;35.60
62809;DHT22;48848;39.002;-94.584;2022-12-18T02:50:38;16.90;36.00
62809;DHT22;48848;39.002;-94.584;2022-12-18T02:55:42;16.70;36.40
62809;DHT22;48848;39.002;-94.584;2022-12-18T03:01:00;16.70;36.10
62809;DHT22;48848;39.002;-94.584;2022-12-18T03:03:31;17.00;35.30
62809;DHT22;48848;39.002;-94.584;2022-12-18T03:08:28;17.70;33.90
62809;DHT22;48848;39.002;-94.584;2022-12-18T03:10:57;17.60;34.00
62809;DHT22;48848;39.002;-94.584;2022-12-18T03:13:34;17.30;34.40
62809;DHT22;48848;39.002;-94.584;2022-12-18T03:16:01;17.10;34.90
62809;DHT22;48848;39.002;-94.584;2022-12-18T03:18:38;16.90;35.50
62809;DHT22;48848;39.002;-94.584;2022-12-18T03:21:05;16.80;35.90
62809;DHT22;48848;39.002;-94.584;2022-12-18T03:23:36;16.70;36.10
62809;DHT22;48848;39.002;-94.584;2022-12-18T03:26:05;16.50;36.40
62809;DHT22;48848;39.002;-94.584;2022-12-18T03:28:31;16.40;36.50
62809;DHT22;48848;39.002;-94.584;2022-12-18T03:31:01;16.50;36.10
62809;DHT22;48848;39.002;-94.584;2022-12-18T03:33:30;16.80;35.40
62809;DHT22;48848;39.002;-94.584;2022-12-18T03:35:57;17.20;34.50
62809;DHT22;48848;39.002;-94.584;2022-12-18T03:38:23;17.40;33.90
62809;DHT22;48848;39.002;-94.584;2022-12-18T03:43:31;17.30;34.20
62809;DHT22;48848;39.002;-94.584;2022-12-18T03:46:41;17.00;34.70
62809;DHT22;48848;39.002;-94.584;2022-12-18T03:48:52;16.80;35.30
62809;DHT22;48848;39.002;-94.584;2022-12-18T03:53:52;16.50;36.20
62809;DHT22;48848;39.002;-94.584;2022-12-18T03:56:22;16.40;37.30
62809;DHT22;48848;39.002;-94.584;2022-12-18T03:58:49;16.30;36.40
62809;DHT22;48848;39.002;-94.584;2022-12-18T04:01:16;16.40;36.00
62809;DHT22;48848;39.002;-94.584;2022-12-18T04:03:43;16.60;35.20
62809;DHT22;48848;39.002;-94.584;2022-12-18T04:06:10;17.00;34.80
62809;DHT22;48848;39.002;-94.584;2022-12-18T04:08:36;17.30;34.20
62809;DHT22;48848;39.002;-94.584;2022-12-18T04:11:04;17.30;34.00
62809;DHT22;48848;39.002;-94.584;2022-12-18T04:13:34;17.10;34.50
62809;DHT22;48848;39.002;-94.584;2022-12-18T04:16:00;16.80;35.10
62809;DHT22;48848;39.002;-94.584;2022-12-18T04:18:27;16.70;35.50
62809;DHT22;48848;39.002;-94.584;2022-12-18T04:20:52;16.60;36.00
62809;DHT22;48848;39.002;-94.584;2022-12-18T04:23:18;16.40;36.10
62809;DHT22;48848;39.002;-94.584;2022-12-18T04:25:45;16.40;36.30
62809;DHT22;48848;39.002;-94.584;2022-12-18T04:28:10;16.30;36.20
62809;DHT22;48848;39.002;-94.584;2022-12-18T04:30:36;16.20;35.90
62809;DHT22;48848;39.002;-94.584;2022-12-18T04:33:02;16.40;35.80
62809;DHT22;48848;39.002;-94.584;2022-12-18T04:35:28;16.60;35.10
62809;DHT22;48848;39.002;-94.584;2022-12-18T04:37:54;16.50;35.40
62809;DHT22;48848;39.002;-94.584;2022-12-18T04:40:20;16.30;35.80
62809;DHT22;48848;39.002;-94.584;2022-12-18T04:42:46;16.20;36.10
62809;DHT22;48848;39.002;-94.584;2022-12-18T04:45:12;16.10;36.50
62809;DHT22;48848;39.002;-94.584;2022-12-18T04:47:38;16.00;36.60
62809;DHT22;48848;39.002;-94.584;2022-12-18T04:50:04;15.90;37.80
62809;DHT22;48848;39.002;-94.584;2022-12-18T04:52:30;15.90;37.10
62809;DHT22;48848;39.002;-94.584;2022-12-18T04:54:56;15.70;37.50
62809;DHT22;48848;39.002;-94.584;2022-12-18T04:57:22;15.70;37.80
62809;DHT22;48848;39.002;-94.584;2022-12-18T04:59:48;15.50;37.40
62809;DHT22;48848;39.002;-94.584;2022-12-18T05:02:14;15.40;37.80
62809;DHT22;48848;39.002;-94.584;2022-12-18T05:04:40;15.40;37.80
62809;DHT22;48848;39.002;-94.584;2022-12-18T05:07:06;15.60;37.50
62809;DHT22;48848;39.002;-94.584;2022-12-18T05:09:31;15.70;37.10
62809;DHT22;48848;39.002;-94.584;2022-12-18T05:11:57;15.70;36.70
62809;DHT22;48848;39.002;-94.584;2022-12-18T05:14:23;15.80;36.60
62809;DHT22;48848;39.002;-94.584;2022-12-18T05:16:49;15.80;36.30
62809;DHT22;48848;39.002;-94.584;2022-12-18T05:19:15;15.80;36.40
62809;DHT22;48848;39.002;-94.584;2022-12-18T05:21:41;15.80;36.00
62809;DHT22;48848;39.002;-94.584;2022-12-18T05:24:07;15.80;35.90
62809;DHT22;48848;39.002;-94.584;2022-12-18T05:26:33;15.80;35.90
62809;DHT22;48848;39.002;-94.584;2022-12-18T05:28:59;15.80;35.70
62809;DHT22;48848;39.002;-94.584;2022-12-18T05:31:24;15.80;35.90
62809;DHT22;48848;39.002;-94.584;2022-12-18T05:33:50;15.80;36.80
62809;DHT22;48848;39.002;-94.584;2022-12-18T05:36:16;15.80;35.80
62809;DHT22;48848;39.002;-94.584;2022-12-18T05:38:42;15.70;35.70
62809;DHT22;48848;39.002;-94.584;2022-12-18T05:41:08;15.70;35.70
62809;DHT22;48848;39.002;-94.584;2022-12-18T05:43:35;15.70;35.70
62809;DHT22;48848;39.002;-94.584;2022-12-18T05:46:08;15.70;35.80
62809;DHT22;48848;39.002;-94.584;2022-12-18T05:48:36;15.60;35.40
62809;DHT22;48848;39.002;-94.584;2022-12-18T05:51:03;15.60;35.60
62809;DHT22;48848;39.002;-94.584;2022-12-18T05:53:30;15.60;35.50
62809;DHT22;48848;39.002;-94.584;2022-12-18T05:55:59;15.60;35.40
62809;DHT22;48848;39.002;-94.584;2022-12-18T05:58:25;15.50;35.60
62809;DHT22;48848;39.002;-94.584;2022-12-18T06:00:50;15.50;35.60
62809;DHT22;48848;39.002;-94.584;2022-12-18T06:03:16;15.50;35.60
62809;DHT22;48848;39.002;-94.584;2022-12-18T06:05:43;15.40;35.80
62809;DHT22;48848;39.002;-94.584;2022-12-18T06:08:09;15.30;35.50
62809;DHT22;48848;39.002;-94.584;2022-12-18T06:10:36;15.30;35.20
62809;DHT22;48848;39.002;-94.584;2022-12-18T06:13:02;15.20;35.40
62809;DHT22;48848;39.002;-94.584;2022-12-18T06:15:28;15.20;35.40
62809;DHT22;48848;39.002;-94.584;2022-12-18T06:17:54;15.20;35.60
62809;DHT22;48848;39.002;-94.584;2022-12-18T06:20:20;15.10;35.40
62809;DHT22;48848;39.002;-94.584;2022-12-18T06:22:46;15.10;35.20
62809;DHT22;48848;39.002;-94.584;2022-12-18T06:25:12;15.10;35.20
62809;DHT22;48848;39.002;-94.584;2022-12-18T06:27:38;15.00;35.00
62809;DHT22;48848;39.002;-94.584;2022-12-18T06:30:04;15.00;35.10
62809;DHT22;48848;39.002;-94.584;2022-12-18T06:32:30;14.90;35.30
62809;DHT22;48848;39.002;-94.584;2022-12-18T06:34:56;14.90;35.40
62809;DHT22;48848;39.002;-94.584;2022-12-18T06:37:22;14.80;35.60
62809;DHT22;48848;39.002;-94.584;2022-12-18T06:39:51;14.80;35.70
62809;DHT22;48848;39.002;-94.584;2022-12-18T06:42:17;14.70;35.50
62809;DHT22;48848;39.002;-94.584;2022-12-18T06:44:43;14.70;35.50
62809;DHT22;48848;39.002;-94.584;2022-12-18T06:47:09;14.70;35.80
62809;DHT22;48848;39.002;-94.584;2022-12-18T06:49:35;14.60;35.40
62809;DHT22;48848;39.002;-94.584;2022-12-18T06:52:01;14.60;36.90
62809;DHT22;48848;39.002;-94.584;2022-12-18T06:54:27;14.60;35.90
62809;DHT22;48848;39.002;-94.584;2022-12-18T06:56:53;14.50;36.00
62809;DHT22;48848;39.002;-94.584;2022-12-18T06:59:19;14.50;36.30
62809;DHT22;48848;39.002;-94.584;2022-12-18T07:01:44;14.40;36.30
62809;DHT22;48848;39.002;-94.584;2022-12-18T07:04:10;14.40;35.90
62809;DHT22;48848;39.002;-94.584;2022-12-18T07:06:37;14.40;36.20
62809;DHT22;48848;39.002;-94.584;2022-12-18T07:09:03;14.30;37.00
62809;DHT22;48848;39.002;-94.584;2022-12-18T07:11:28;14.40;36.70
62809;DHT22;48848;39.002;-94.584;2022-12-18T07:13:54;14.70;37.00
62809;DHT22;48848;39.002;-94.584;2022-12-18T07:16:20;15.00;36.00
62809;DHT22;48848;39.002;-94.584;2022-12-18T07:18:46;15.00;35.40
62809;DHT22;48848;39.002;-94.584;2022-12-18T07:21:13;14.90;35.00
62809;DHT22;48848;39.002;-94.584;2022-12-18T07:23:39;14.80;35.20
62809;DHT22;48848;39.002;-94.584;2022-12-18T07:26:06;14.70;35.30
62809;DHT22;48848;39.002;-94.584;2022-12-18T07:28:33;14.70;35.50
62809;DHT22;48848;39.002;-94.584;2022-12-18T07:31:05;14.60;35.60
62809;DHT22;48848;39.002;-94.584;2022-12-18T07:33:32;14.60;35.70
62809;DHT22;48848;39.002;-94.584;2022-12-18T07:35:59;14.50;35.90
62809;DHT22;48848;39.002;-94.584;2022-12-18T07:38:25;14.40;36.10
62809;DHT22;48848;39.002;-94.584;2022-12-18T07:40:51;14.40;36.00
62809;DHT22;48848;39.002;-94.584;2022-12-18T07:43:17;14.30;36.20
62809;DHT22;48848;39.002;-94.584;2022-12-18T07:45:43;14.30;36.50
62809;DHT22;48848;39.002;-94.584;2022-12-18T07:48:09;14.30;37.10
62809;DHT22;48848;39.002;-94.584;2022-12-18T07:50:36;14.30;37.10
62809;DHT22;48848;39.002;-94.584;2022-12-18T07:53:02;14.70;36.50
62809;DHT22;48848;39.002;-94.584;2022-12-18T07:55:30;15.10;35.50
62809;DHT22;48848;39.002;-94.584;2022-12-18T07:57:56;15.20;35.20
62809;DHT22;48848;39.002;-94.584;2022-12-18T08:00:22;15.00;35.00
62809;DHT22;48848;39.002;-94.584;2022-12-18T08:02:48;14.90;34.80
62809;DHT22;48848;39.002;-94.584;2022-12-18T08:05:14;14.80;35.30
62809;DHT22;48848;39.002;-94.584;2022-12-18T08:07:40;14.70;35.60
62809;DHT22;48848;39.002;-94.584;2022-12-18T08:10:06;14.60;35.70
62809;DHT22;48848;39.002;-94.584;2022-12-18T08:12:32;14.50;35.80
62809;DHT22;48848;39.002;-94.584;2022-12-18T08:14:58;14.40;35.70
62809;DHT22;48848;39.002;-94.584;2022-12-18T08:17:24;14.40;35.90
62809;DHT22;48848;39.002;-94.584;2022-12-18T08:19:50;14.30;36.00
62809;DHT22;48848;39.002;-94.584;2022-12-18T08:22:16;14.30;36.20
62809;DHT22;48848;39.002;-94.584;2022-12-18T08:24:41;14.30;36.60
62809;DHT22;48848;39.002;-94.584;2022-12-18T08:27:07;14.50;36.70
62809;DHT22;48848;39.002;-94.584;2022-12-18T08:29:33;14.90;35.90
62809;DHT22;48848;39.002;-94.584;2022-12-18T08:31:59;15.10;35.30
62809;DHT22;48848;39.002;-94.584;2022-12-18T08:34:25;15.00;35.00
62809;DHT22;48848;39.002;-94.584;2022-12-18T08:36:51;14.90;35.00
62809;DHT22;48848;39.002;-94.584;2022-12-18T08:39:17;14.70;35.00
62809;DHT22;48848;39.002;-94.584;2022-12-18T08:41:43;14.70;35.40
62809;DHT22;48848;39.002;-94.584;2022-12-18T08:44:28;14.60;35.70
62809;DHT22;48848;39.002;-94.584;2022-12-18T08:47:04;14.50;35.80
62809;DHT22;48848;39.002;-94.584;2022-12-18T08:49:30;14.40;35.90
62809;DHT22;48848;39.002;-94.584;2022-12-18T08:51:56;14.40;36.20
62809;DHT22;48848;39.002;-94.584;2022-12-18T08:54:23;14.30;36.00
62809;DHT22;48848;39.002;-94.584;2022-12-18T08:56:49;14.30;36.40
62809;DHT22;48848;39.002;-94.584;2022-12-18T08:59:15;14.40;36.80
62809;DHT22;48848;39.002;-94.584;2022-12-18T09:01:41;14.70;36.20
62809;DHT22;48848;39.002;-94.584;2022-12-18T09:04:08;15.00;35.60
62809;DHT22;48848;39.002;-94.584;2022-12-18T09:06:35;15.00;35.00
62809;DHT22;48848;39.002;-94.584;2022-12-18T09:09:01;14.90;34.80
62809;DHT22;48848;39.002;-94.584;2022-12-18T09:11:27;14.80;35.00
62809;DHT22;48848;39.002;-94.584;2022-12-18T09:13:54;14.70;35.40
62809;DHT22;48848;39.002;-94.584;2022-12-18T09:16:20;14.60;35.80
62809;DHT22;48848;39.002;-94.584;2022-12-18T09:18:46;14.50;35.60
62809;DHT22;48848;39.002;-94.584;2022-12-18T09:21:17;14.50;36.00
62809;DHT22;48848;39.002;-94.584;2022-12-18T09:23:43;14.40;35.90
62809;DHT22;48848;39.002;-94.584;2022-12-18T09:26:09;14.30;35.80
62809;DHT22;48848;39.002;-94.584;2022-12-18T09:28:35;14.30;36.20
62809;DHT22;48848;39.002;-94.584;2022-12-18T09:31:05;14.30;36.30
62809;DHT22;48848;39.002;-94.584;2022-12-18T09:33:32;14.50;36.50
62809;DHT22;48848;39.002;-94.584;2022-12-18T09:36:00;14.90;35.50
62809;DHT22;48848;39.002;-94.584;2022-12-18T09:38:26;15.00;35.20
62809;DHT22;48848;39.002;-94.584;2022-12-18T09:40:53;14.90;34.90
62809;DHT22;48848;39.002;-94.584;2022-12-18T09:43:28;14.80;34.70
62809;DHT22;48848;39.002;-94.584;2022-12-18T09:45:59;14.70;35.10
62809;DHT22;48848;39.002;-94.584;2022-12-18T09:48:30;14.70;35.50
62809;DHT22;48848;39.002;-94.584;2022-12-18T09:51:01;14.60;35.80
62809;DHT22;48848;39.002;-94.584;2022-12-18T09:53:29;14.50;36.00
62809;DHT22;48848;39.002;-94.584;2022-12-18T09:55:57;14.40;35.80
62809;DHT22;48848;39.002;-94.584;2022-12-18T10:00:55;14.30;36.20
62809;DHT22;48848;39.002;-94.584;2022-12-18T10:03:21;14.30;36.40
62809;DHT22;48848;39.002;-94.584;2022-12-18T10:11:10;15.00;35.30
62809;DHT22;48848;39.002;-94.584;2022-12-18T10:16:19;14.80;35.00
62809;DHT22;48848;39.002;-94.584;2022-12-18T10:18:54;14.70;35.10
62809;DHT22;48848;39.002;-94.584;2022-12-18T10:21:36;14.60;35.90
62809;DHT22;48848;39.002;-94.584;2022-12-18T10:24:15;14.50;36.10
62809;DHT22;48848;39.002;-94.584;2022-12-18T10:26:44;14.40;36.00
62809;DHT22;48848;39.002;-94.584;2022-12-18T10:29:14;14.40;36.20
62809;DHT22;48848;39.002;-94.584;2022-12-18T10:31:40;14.30;36.50
62809;DHT22;48848;39.002;-94.584;2022-12-18T10:34:12;14.30;36.40
62809;DHT22;48848;39.002;-94.584;2022-12-18T10:36:38;14.60;36.20
62809;DHT22;48848;39.002;-94.584;2022-12-18T10:39:17;14.90;35.50
62809;DHT22;48848;39.002;-94.584;2022-12-18T10:41:44;15.00;35.10
62809;DHT22;48848;39.002;-94.584;2022-12-18T10:44:11;14.80;34.70
62809;DHT22;48848;39.002;-94.584;2022-12-18T10:46:37;14.70;34.90
62809;DHT22;48848;39.002;-94.584;2022-12-18T10:49:03;14.70;35.60
62809;DHT22;48848;39.002;-94.584;2022-12-18T10:51:32;14.60;35.60
62809;DHT22;48848;39.002;-94.584;2022-12-18T10:54:00;14.50;35.70
62809;DHT22;48848;39.002;-94.584;2022-12-18T10:56:27;14.40;36.10
62809;DHT22;48848;39.002;-94.584;2022-12-18T10:59:04;14.40;36.30
62809;DHT22;48848;39.002;-94.584;2022-12-18T11:04:15;14.30;36.40
62809;DHT22;48848;39.002;-94.584;2022-12-18T11:06:55;14.70;35.90
62809;DHT22;48848;39.002;-94.584;2022-12-18T11:11:56;14.90;35.00
62809;DHT22;48848;39.002;-94.584;2022-12-18T11:14:27;14.80;34.80
62809;DHT22;48848;39.002;-94.584;2022-12-18T11:16:54;14.70;36.20
62809;DHT22;48848;39.002;-94.584;2022-12-18T11:19:34;14.60;35.60
62809;DHT22;48848;39.002;-94.584;2022-12-18T11:22:00;14.50;35.70
62809;DHT22;48848;39.002;-94.584;2022-12-18T11:24:31;14.40;35.90
62809;DHT22;48848;39.002;-94.584;2022-12-18T11:26:58;14.30;36.10
62809;DHT22;48848;39.002;-94.584;2022-12-18T11:29:33;14.30;36.10
62809;DHT22;48848;39.002;-94.584;2022-12-18T11:34:44;14.30;36.60
62809;DHT22;48848;39.002;-94.584;2022-12-18T11:37:11;14.80;35.70
62809;DHT22;48848;39.002;-94.584;2022-12-18T11:39:45;14.90;35.20
62809;DHT22;48848;39.002;-94.584;2022-12-18T11:42:14;15.10;35.00
62809;DHT22;48848;39.002;-94.584;2022-12-18T11:44:57;15.30;34.70
62809;DHT22;48848;39.002;-94.584;2022-12-18T11:47:28;15.50;34.70
62809;DHT22;48848;39.002;-94.584;2022-12-18T11:49:59;15.70;34.20
62809;DHT22;48848;39.002;-94.584;2022-12-18T11:52:36;15.90;34.10
62809;DHT22;48848;39.002;-94.584;2022-12-18T11:55:14;16.20;33.80
62809;DHT22;48848;39.002;-94.584;2022-12-18T12:00:18;16.40;33.40
62809;DHT22;48848;39.002;-94.584;2022-12-18T12:15:55;16.90;32.80
62809;DHT22;48848;39.002;-94.584;2022-12-18T12:18:27;16.70;33.10
62809;DHT22;48848;39.002;-94.584;2022-12-18T12:26:08;16.20;33.60
62809;DHT22;48848;39.002;-94.584;2022-12-18T12:31:05;16.60;33.60
62809;DHT22;48848;39.002;-94.584;2022-12-18T12:36:16;16.90;33.00
62809;DHT22;48848;39.002;-94.584;2022-12-18T12:38:45;16.90;32.90
62809;DHT22;48848;39.002;-94.584;2022-12-18T12:41:13;16.80;32.70
62809;DHT22;48848;39.002;-94.584;2022-12-18T12:43:59;16.70;33.10
62809;DHT22;48848;39.002;-94.584;2022-12-18T12:46:27;16.50;33.70
62809;DHT22;48848;39.002;-94.584;2022-12-18T12:48:58;16.30;34.20
62809;DHT22;48848;39.002;-94.584;2022-12-18T12:51:33;16.20;34.30
62809;DHT22;48848;39.002;-94.584;2022-12-18T12:54:01;16.20;34.20
62809;DHT22;48848;39.002;-94.584;2022-12-18T12:56:30;16.30;34.00
62809;DHT22;48848;39.002;-94.584;2022-12-18T12:59:02;16.50;33.80
62809;DHT22;48848;39.002;-94.584;2022-12-18T13:09:18;16.70;32.80
62809;DHT22;48848;39.002;-94.584;2022-12-18T13:11:45;16.60;33.40
62809;DHT22;48848;39.002;-94.584;2022-12-18T13:14:31;16.40;33.90
62809;DHT22;48848;39.002;-94.584;2022-12-18T13:17:16;16.30;34.50
62809;DHT22;48848;39.002;-94.584;2022-12-18T13:19:42;16.20;34.70
62809;DHT22;48848;39.002;-94.584;2022-12-18T13:22:22;16.20;34.50
62809;DHT22;48848;39.002;-94.584;2022-12-18T13:24:48;16.40;34.00
62809;DHT22;48848;39.002;-94.584;2022-12-18T13:29:59;16.90;33.20
62809;DHT22;48848;39.002;-94.584;2022-12-18T13:32:25;17.00;32.80
62809;DHT22;48848;39.002;-94.584;2022-12-18T13:37:56;16.30;33.90
62809;DHT22;48848;39.002;-94.584;2022-12-18T13:41:03;15.90;34.90
62809;DHT22;48848;39.002;-94.584;2022-12-18T13:46:17;15.30;36.20
62809;DHT22;48848;39.002;-94.584;2022-12-18T13:48:32;15.10;36.50
62809;DHT22;48848;39.002;-94.584;2022-12-18T13:51:05;15.20;36.10
62809;DHT22;48848;39.002;-94.584;2022-12-18T13:56:07;15.80;34.60
62809;DHT22;48848;39.002;-94.584;2022-12-18T13:58:33;16.10;34.10
62809;DHT22;48848;39.002;-94.584;2022-12-18T14:00:59;16.20;33.90
62809;DHT22;48848;39.002;-94.584;2022-12-18T14:03:28;15.90;34.30
62809;DHT22;48848;39.002;-94.584;2022-12-18T14:06:05;15.60;35.40
62809;DHT22;48848;39.002;-94.584;2022-12-18T14:08:37;15.40;35.70
62809;DHT22;48848;39.002;-94.584;2022-12-18T14:11:03;15.20;36.00
62809;DHT22;48848;39.002;-94.584;2022-12-18T14:13:31;15.00;36.40
62809;DHT22;48848;39.002;-94.584;2022-12-18T14:16:00;14.90;36.10
62809;DHT22;48848;39.002;-94.584;2022-12-18T14:18:29;15.10;36.00
62809;DHT22;48848;39.002;-94.584;2022-12-18T14:21:00;15.40;35.40
62809;DHT22;48848;39.002;-94.584;2022-12-18T14:25:53;16.00;34.40
62809;DHT22;48848;39.002;-94.584;2022-12-18T14:28:19;15.90;34.10
62809;DHT22;48848;39.002;-94.584;2022-12-18T14:30:47;15.70;34.70
62809;DHT22;48848;39.002;-94.584;2022-12-18T14:36:00;15.30;35.90
62809;DHT22;48848;39.002;-94.584;2022-12-18T14:38:27;15.10;36.30
62809;DHT22;48848;39.002;-94.584;2022-12-18T14:43:20;14.80;36.90
62809;DHT22;48848;39.002;-94.584;2022-12-18T14:45:46;15.00;36.40
62809;DHT22;48848;39.002;-94.584;2022-12-18T14:48:16;15.30;35.70
62809;DHT22;48848;39.002;-94.584;2022-12-18T14:50:43;15.60;35.00
62809;DHT22;48848;39.002;-94.584;2022-12-18T14:53:29;15.90;34.50
62809;DHT22;48848;39.002;-94.584;2022-12-18T14:55:57;16.10;34.50
62809;DHT22;48848;39.002;-94.584;2022-12-18T14:58:23;15.70;35.30
62809;DHT22;48848;39.002;-94.584;2022-12-18T15:00:49;15.40;35.60
62809;DHT22;48848;39.002;-94.584;2022-12-18T15:03:17;15.20;36.00
62809;DHT22;48848;39.002;-94.584;2022-12-18T15:05:44;15.00;36.60
62809;DHT22;48848;39.002;-94.584;2022-12-18T15:10:54;14.80;37.20
62809;DHT22;48848;39.002;-94.584;2022-12-18T15:13:22;15.10;36.40
62809;DHT22;48848;39.002;-94.584;2022-12-18T15:15:49;15.40;35.60
62809;DHT22;48848;39.002;-94.584;2022-12-18T15:18:27;15.80;34.90
62809;DHT22;48848;39.002;-94.584;2022-12-18T15:21:37;16.10;34.30
62809;DHT22;48848;39.002;-94.584;2022-12-18T15:26:11;15.70;35.30
62809;DHT22;48848;39.002;-94.584;2022-12-18T15:28:39;15.50;35.80
62809;DHT22;48848;39.002;-94.584;2022-12-18T15:33:44;15.10;36.70
62809;DHT22;48848;39.002;-94.584;2022-12-18T15:36:16;14.90;37.10
62809;DHT22;48848;39.002;-94.584;2022-12-18T15:38:51;14.90;37.30
62809;DHT22;48848;39.002;-94.584;2022-12-18T15:41:20;15.20;36.60
62809;DHT22;48848;39.002;-94.584;2022-12-18T15:43:50;15.60;35.90
62809;DHT22;48848;39.002;-94.584;2022-12-18T15:46:17;16.00;35.00
62809;DHT22;48848;39.002;-94.584;2022-12-18T15:48:47;16.30;34.60
62809;DHT22;48848;39.002;-94.584;2022-12-18T15:51:16;16.20;34.60
62809;DHT22;48848;39.002;-94.584;2022-12-18T15:53:43;15.90;35.40
62809;DHT22;48848;39.002;-94.584;2022-12-18T15:56:10;15.70;36.10
62809;DHT22;48848;39.002;-94.584;2022-12-18T15:58:55;15.50;36.60
62809;DHT22;48848;39.002;-94.584;2022-12-18T16:01:21;15.30;37.30
62809;DHT22;48848;39.002;-94.584;2022-12-18T16:03:48;15.10;37.60
62809;DHT22;48848;39.002;-94.584;2022-12-18T16:06:14;15.00;38.10
62809;DHT22;48848;39.002;-94.584;2022-12-18T16:08:39;14.90;38.20
62809;DHT22;48848;39.002;-94.584;2022-12-18T16:11:05;14.80;39.30
62809;DHT22;48848;39.002;-94.584;2022-12-18T16:13:31;14.90;38.30
62809;DHT22;48848;39.002;-94.584;2022-12-18T16:15:57;15.30;37.10
62809;DHT22;48848;39.002;-94.584;2022-12-18T16:18:23;15.80;36.40
62809;DHT22;48848;39.002;-94.584;2022-12-18T16:20:49;16.20;36.00
62809;DHT22;48848;39.002;-94.584;2022-12-18T16:23:15;16.20;36.10
62809;DHT22;48848;39.002;-94.584;2022-12-18T16:25:41;16.00;36.60
62809;DHT22;48848;39.002;-94.584;2022-12-18T16:28:07;15.80;37.00
62809;DHT22;48848;39.002;-94.584;2022-12-18T16:30:33;15.60;37.30
62809;DHT22;48848;39.002;-94.584;2022-12-18T16:32:59;15.50;37.60
62809;DHT22;48848;39.002;-94.584;2022-12-18T16:35:25;15.40;38.40
62809;DHT22;48848;39.002;-94.584;2022-12-18T16:37:52;15.40;38.70
62809;DHT22;48848;39.002;-94.584;2022-12-18T16:40:18;15.50;38.90
62809;DHT22;48848;39.002;-94.584;2022-12-18T16:42:45;15.80;37.50
62809;DHT22;48848;39.002;-94.584;2022-12-18T16:45:13;16.10;37.10
62809;DHT22;48848;39.002;-94.584;2022-12-18T16:47:39;16.50;36.50